Time;durP1;ratioP1;P1;durP2;ratioP2;P2;SDS_P1;SDS_P2;PMS_P1;PMS_P2;Temp;Humidity;BMP_temperature;BMP_pressure;BME280_temperature;BME280_humidity;BME280_pressure;Samples;Min_cycle;Max_cycle;Signal;HPM_P1;HPM_P2
2020/12/14 00:00:13;;;;;;;30.93;20.57;;;5.70;99.90;;;3.73;100.00;100251.19;5012816;27;100454;-60
2020/12/14 00:02:41;;;;;;;26.80;19.80;;;5.70;99.90;;;3.57;100.00;100248.03;5013606;27;100382;-60
2020/12/14 00:05:09;;;;;;;30.47;20.17;;;5.60;99.90;;;3.62;100.00;100256.44;5025613;27;101011;-61
2020/12/14 00:07:36;;;;;;;27.83;19.40;;;5.70;99.90;;;3.48;100.00;100259.28;5029175;27;101320;-61
2020/12/14 00:10:05;;;;;;;28.00;18.50;;;5.50;99.90;;;3.40;100.00;100261.66;5013410;27;100135;-61
2020/12/14 00:12:31;;;;;;;25.40;18.07;;;5.80;99.90;;;3.40;100.00;100265.16;5012272;27;100110;-60
2020/12/14 00:14:58;;;;;;;31.30;19.87;;;5.50;99.90;;;3.47;100.00;100260.22;5017004;27;101440;-60
2020/12/14 00:17:24;;;;;;;28.87;19.47;;;5.50;99.90;;;3.49;100.00;100256.53;5032700;27;100267;-60
2020/12/14 00:19:51;;;;;;;26.00;18.60;;;5.50;99.90;;;3.58;100.00;100260.31;5032193;27;99916;-60
2020/12/14 00:22:18;;;;;;;29.40;19.87;;;5.70;99.90;;;3.69;100.00;100259.50;5032547;27;100018;-60
2020/12/14 00:24:44;;;;;;;27.30;19.17;;;5.70;99.90;;;3.61;100.00;100268.84;5030813;27;101714;-61
2020/12/14 00:27:11;;;;;;;26.03;18.37;;;5.70;99.90;;;3.59;100.00;100256.69;5028196;27;100619;-60
2020/12/14 00:29:37;;;;;;;26.90;19.10;;;5.70;99.90;;;3.57;100.00;100264.75;5028561;27;100007;-60
2020/12/14 00:32:04;;;;;;;27.27;19.17;;;5.70;99.90;;;3.60;100.00;100259.22;5029535;27;99962;-60
2020/12/14 00:34:30;;;;;;;24.87;18.27;;;5.80;99.90;;;3.63;100.00;100262.59;5028267;27;101273;-60
2020/12/14 00:36:57;;;;;;;25.93;19.23;;;5.80;99.90;;;3.70;100.00;100256.75;5010098;27;101088;-60
2020/12/14 00:39:24;;;;;;;24.90;18.57;;;5.80;99.90;;;3.85;100.00;100260.84;5028171;27;100184;-63
2020/12/14 00:41:50;;;;;;;27.90;19.77;;;5.80;99.90;;;3.85;100.00;100260.84;5029626;27;100249;-62
2020/12/14 00:44:17;;;;;;;25.60;19.60;;;5.90;99.90;;;3.97;100.00;100253.78;5028398;27;101007;-63
2020/12/14 00:46:45;;;;;;;27.30;19.10;;;6.00;99.90;;;4.02;100.00;100254.28;5028515;27;101017;-63
2020/12/14 00:49:12;;;;;;;26.73;18.67;;;6.00;99.90;;;4.09;100.00;100259.94;5028069;27;99961;-61
2020/12/14 00:51:39;;;;;;;25.87;18.37;;;6.20;99.90;;;4.09;100.00;100250.19;5027854;27;100125;-61
2020/12/14 00:54:07;;;;;;;26.87;18.80;;;6.20;99.90;;;4.12;100.00;100267.66;5008005;27;101508;-62
2020/12/14 00:56:34;;;;;;;28.43;18.97;;;6.20;99.90;;;4.16;100.00;100263.81;5008625;27;100434;-61
2020/12/14 00:59:00;;;;;;;28.30;19.23;;;6.20;99.90;;;4.21;100.00;100265.16;5008384;27;100066;-61
2020/12/14 01:01:28;;;;;;;26.10;17.83;;;6.20;99.90;;;4.24;100.00;100275.50;5008353;27;100351;-60
2020/12/14 01:03:55;;;;;;;24.37;17.83;;;6.20;99.90;;;4.13;100.00;100261.41;5011867;27;101948;-60
2020/12/14 01:06:21;;;;;;;27.10;18.43;;;6.20;99.90;;;4.15;100.00;100265.63;5018207;27;100777;-62
2020/12/14 01:08:47;;;;;;;24.63;18.53;;;6.30;99.90;;;4.01;100.00;100265.00;5008651;27;100012;-60
2020/12/14 01:11:15;;;;;;;25.83;17.93;;;6.10;99.90;;;4.02;100.00;100267.53;5008244;27;99874;-61
2020/12/14 01:13:45;;;;;;;25.13;17.97;;;6.10;99.90;;;4.00;100.00;100272.09;5007301;27;100802;-61
2020/12/14 01:16:12;;;;;;;25.93;17.70;;;6.10;99.90;;;3.85;100.00;100273.25;5008169;27;101108;-61
2020/12/14 01:18:38;;;;;;;28.00;18.60;;;5.90;99.90;;;3.71;100.00;100276.94;5009920;27;100231;-61
2020/12/14 01:21:05;;;;;;;26.03;17.57;;;5.70;99.90;;;3.64;100.00;100281.00;5008382;27;100175;-61
2020/12/14 01:23:32;;;;;;;26.93;19.43;;;5.70;99.90;;;3.60;100.00;100283.03;5007911;27;100065;-61
2020/12/14 01:25:58;;;;;;;25.97;18.57;;;5.60;99.90;;;3.54;100.00;100294.06;5008672;27;100623;-61
2020/12/14 01:28:26;;;;;;;28.27;18.70;;;5.60;99.90;;;3.38;100.00;100285.56;5008152;27;99754;-61
2020/12/14 01:30:52;;;;;;;24.93;18.90;;;5.40;99.90;;;3.30;100.00;100287.09;5008910;27;100066;-61
2020/12/14 01:33:18;;;;;;;24.47;17.90;;;5.50;99.90;;;3.24;100.00;100291.88;5011981;27;101684;-61
2020/12/14 01:35:45;;;;;;;27.80;19.23;;;5.30;99.90;;;3.24;100.00;100291.88;5027638;27;100998;-62
2020/12/14 01:38:11;;;;;;;24.93;17.70;;;5.10;99.90;;;3.15;100.00;100292.53;5026976;27;100029;-61
2020/12/14 01:40:38;;;;;;;27.87;18.83;;;5.10;99.90;;;3.20;100.00;100294.88;5027921;27;100162;-61
2020/12/14 01:43:04;;;;;;;29.60;18.73;;;5.00;99.90;;;3.10;100.00;100293.81;5027856;27;100328;-61
2020/12/14 01:45:31;;;;;;;26.60;19.63;;;5.00;99.90;;;3.29;100.00;100295.97;5027664;27;100828;-61
2020/12/14 01:48:02;;;;;;;32.97;20.50;;;4.90;99.90;;;3.13;100.00;100285.66;5028163;27;100338;-60
2020/12/14 01:50:29;;;;;;;25.93;18.17;;;4.90;99.90;;;3.05;100.00;100291.50;5028059;27;100262;-62
2020/12/14 01:52:59;;;;;;;28.80;19.70;;;4.70;99.90;;;3.11;100.00;100293.69;5028048;27;101105;-61
2020/12/14 01:55:32;;;;;;;30.00;18.80;;;4.80;99.90;;;2.91;100.00;100302.22;5028128;27;101597;-62
2020/12/14 01:57:59;;;;;;;30.17;19.13;;;4.70;99.90;;;2.92;100.00;100295.16;5028332;27;100228;-61
2020/12/14 02:00:26;;;;;;;28.87;19.53;;;4.50;99.90;;;2.76;100.00;100303.31;5027088;27;100375;-61
2020/12/14 02:02:54;;;;;;;29.30;19.90;;;4.50;99.90;;;2.73;100.00;100298.22;5009099;27;100539;-61
2020/12/14 02:05:20;;;;;;;25.50;17.70;;;4.40;99.90;;;2.72;100.00;100297.38;5007035;27;100757;-59
2020/12/14 02:07:47;;;;;;;27.97;18.70;;;4.40;99.90;;;2.35;100.00;100295.66;5007822;27;100176;-60
2020/12/14 02:10:14;;;;;;;25.30;18.03;;;4.40;99.90;;;2.07;100.00;100292.25;5022766;27;100146;-61
2020/12/14 02:12:41;;;;;;;26.37;16.90;;;4.40;99.90;;;1.92;100.00;100292.44;5027065;27;100882;-61
2020/12/14 02:15:07;;;;;;;25.30;18.03;;;4.40;99.90;;;1.79;100.00;100293.25;5027380;27;100659;-62
2020/12/14 02:17:34;;;;;;;25.90;17.90;;;4.10;99.90;;;1.88;100.00;100293.56;5027889;27;100188;-61
2020/12/14 02:20:01;;;;;;;27.20;17.37;;;4.00;99.90;;;1.92;100.00;100290.63;5027118;27;100069;-61
2020/12/14 02:22:28;;;;;;;32.67;19.23;;;4.00;99.90;;;2.12;100.00;100287.47;5027207;27;101545;-61
2020/12/14 02:24:58;;;;;;;26.53;19.00;;;3.80;99.90;;;2.01;100.00;100290.00;5015266;27;101643;-61
2020/12/14 02:27:25;;;;;;;31.53;20.17;;;3.90;99.90;;;2.18;100.00;100288.88;5008023;27;100195;-60
2020/12/14 02:29:53;;;;;;;30.33;20.33;;;3.80;99.90;;;2.20;100.00;100281.69;5017045;27;99998;-60
2020/12/14 02:32:21;;;;;;;29.63;20.70;;;3.80;99.90;;;2.20;100.00;100284.34;5006954;27;101178;-60
2020/12/14 02:34:50;;;;;;;32.17;21.40;;;3.70;99.90;;;2.15;100.00;100279.38;5010366;27;100500;-61
2020/12/14 02:37:23;;;;;;;27.93;18.87;;;3.90;99.90;;;2.00;100.00;100275.13;5026780;27;100039;-60
2020/12/14 02:39:50;;;;;;;27.80;18.73;;;3.90;99.90;;;1.94;100.00;100280.81;5026823;27;99967;-61
2020/12/14 02:42:20;;;;;;;27.77;18.17;;;4.00;99.90;;;2.15;100.00;100281.16;5026645;27;100496;-62
2020/12/14 02:44:47;;;;;;;34.43;21.90;;;3.90;99.90;;;2.01;100.00;100281.25;5027585;27;100790;-59
2020/12/14 02:47:14;;;;;;;28.57;18.83;;;4.00;99.90;;;1.80;100.00;100286.19;5027978;27;100026;-61
2020/12/14 02:49:42;;;;;;;29.40;19.53;;;4.10;99.90;;;1.91;100.00;100270.47;5026381;27;100258;-61
2020/12/14 02:52:10;;;;;;;33.20;20.73;;;4.00;99.90;;;2.02;100.00;100267.09;5026584;27;101379;-61
2020/12/14 02:54:39;;;;;;;35.23;21.70;;;3.90;99.90;;;1.85;100.00;100260.34;5016825;27;100880;-60
2020/12/14 02:57:05;;;;;;;31.40;19.27;;;3.90;99.90;;;1.76;100.00;100255.66;5011217;27;99873;-61
2020/12/14 02:59:32;;;;;;;32.50;20.30;;;4.00;99.90;;;1.87;100.00;100260.22;5026360;27;100171;-61
2020/12/14 03:01:59;;;;;;;34.40;22.33;;;3.90;99.90;;;1.99;100.00;100257.59;5025350;27;100803;-60
2020/12/14 03:04:25;;;;;;;33.97;21.90;;;3.70;99.90;;;1.98;100.00;100257.72;5018022;27;100370;-61
2020/12/14 03:06:52;;;;;;;40.03;23.27;;;3.80;99.90;;;2.12;100.00;100253.16;5007055;27;100058;-60
2020/12/14 03:09:21;;;;;;;43.13;26.20;;;3.70;99.90;;;2.19;100.00;100240.41;5008332;27;100275;-62
2020/12/14 03:11:47;;;;;;;40.73;25.47;;;3.80;99.90;;;2.16;100.00;100244.09;5006102;27;100570;-60
2020/12/14 03:14:14;;;;;;;38.87;23.53;;;3.60;99.90;;;2.08;100.00;100246.44;5006737;27;100673;-61
2020/12/14 03:16:42;;;;;;;39.50;24.73;;;3.70;99.90;;;2.10;100.00;100259.53;5006474;27;100569;-61
2020/12/14 03:19:09;;;;;;;40.20;24.93;;;3.60;99.90;;;2.07;100.00;100262.38;5008557;27;100183;-62
2020/12/14 03:21:36;;;;;;;43.90;25.03;;;3.60;99.90;;;1.96;100.00;100265.75;5005741;27;101192;-60
2020/12/14 03:24:02;;;;;;;40.67;24.00;;;3.60;99.90;;;1.95;100.00;100269.31;5006569;27;100516;-62
2020/12/14 03:26:29;;;;;;;37.60;22.97;;;3.80;99.90;;;1.99;100.00;100276.06;5007551;27;100026;-60
2020/12/14 03:28:56;;;;;;;49.57;27.30;;;3.50;99.90;;;2.10;100.00;100283.28;5006432;27;99984;-62
2020/12/14 03:31:22;;;;;;;45.90;27.00;;;3.60;99.90;;;2.03;100.00;100288.13;5006162;27;101126;-63
2020/12/14 03:33:50;;;;;;;45.87;25.93;;;3.70;99.90;;;2.16;100.00;100281.06;5010312;27;100728;-62
2020/12/14 03:36:17;;;;;;;45.43;26.73;;;5.50;99.90;;;2.04;100.00;100287.16;5025854;27;100203;-63
2020/12/14 03:38:43;;;;;;;45.93;29.30;;;3.70;99.90;;;2.05;100.00;100286.22;5026391;27;99989;-62
2020/12/14 03:41:10;;;;;;;49.47;27.53;;;3.80;99.90;;;2.11;100.00;100291.06;5024527;27;102020;-62
2020/12/14 03:43:36;;;;;;;49.93;28.27;;;4.00;99.90;;;2.17;100.00;100287.19;5026123;27;100567;-63
2020/12/14 03:46:03;;;;;;;48.83;27.50;;;3.90;99.90;;;2.16;100.00;100285.50;5026306;27;100225;-63
2020/12/14 03:48:29;;;;;;;48.03;28.47;;;4.10;99.90;;;2.23;100.00;100293.81;5026783;27;100071;-64
2020/12/14 03:50:56;;;;;;;43.97;27.17;;;4.00;99.90;;;2.32;100.00;100282.66;5026324;27;101304;-62
2020/12/14 03:53:23;;;;;;;49.10;29.33;;;4.20;99.90;;;2.32;100.00;100270.28;5011839;27;100712;-63
2020/12/14 03:55:51;;;;;;;43.80;27.13;;;3.90;99.90;;;2.40;100.00;100280.31;5005751;27;100127;-62
2020/12/14 03:58:18;;;;;;;44.30;27.53;;;4.20;99.90;;;2.42;100.00;100273.97;5004337;27;100284;-63
2020/12/14 04:00:46;;;;;;;44.80;27.73;;;4.10;99.90;;;2.43;100.00;100278.31;5006272;27;100868;-63
2020/12/14 04:03:12;;;;;;;47.60;28.13;;;4.20;99.90;;;2.48;100.00;100277.97;5009239;27;100356;-61
2020/12/14 04:05:39;;;;;;;47.57;28.13;;;4.30;99.90;;;2.51;100.00;100278.63;5027135;27;100596;-63
2020/12/14 04:08:06;;;;;;;41.67;27.57;;;4.30;99.90;;;2.56;100.00;100272.16;5027886;27;100512;-62
2020/12/14 04:10:36;;;;;;;44.77;27.50;;;4.40;99.90;;;2.57;100.00;100281.78;5011633;27;101221;-62
2020/12/14 04:13:03;;;;;;;45.23;28.33;;;4.40;99.90;;;2.53;100.00;100281.16;5009076;27;100135;-63
2020/12/14 04:15:29;;;;;;;47.17;27.57;;;4.40;99.90;;;2.54;100.00;100285.47;5007586;27;100307;-62
2020/12/14 04:17:56;;;;;;;47.43;28.13;;;4.60;99.90;;;2.52;100.00;100282.09;5009514;27;100437;-63
2020/12/14 04:20:22;;;;;;;46.90;27.00;;;4.50;99.90;;;2.53;100.00;100278.50;5010292;27;101099;-62
2020/12/14 04:22:49;;;;;;;44.83;27.43;;;4.40;99.90;;;2.52;100.00;100288.22;5029278;27;100477;-62
2020/12/14 04:25:20;;;;;;;46.90;27.47;;;4.40;99.90;;;2.51;100.00;100289.19;5011498;27;100248;-62
2020/12/14 04:27:47;;;;;;;43.23;26.00;;;4.50;99.90;;;2.52;100.00;100290.88;5009231;27;100046;-62
2020/12/14 04:30:14;;;;;;;40.70;26.07;;;4.60;99.90;;;2.49;100.00;100303.44;5022345;27;101652;-63
2020/12/14 04:32:40;;;;;;;45.27;26.57;;;4.70;99.90;;;2.45;100.00;100308.09;5029112;27;101113;-62
2020/12/14 04:35:10;;;;;;;48.10;27.30;;;4.40;99.90;;;2.45;100.00;100305.47;5014833;27;100320;-62
2020/12/14 04:37:36;;;;;;;41.83;26.10;;;4.50;99.90;;;2.49;100.00;100298.16;5009300;27;100053;-62
2020/12/14 04:40:03;;;;;;;45.40;27.63;;;4.50;99.90;;;2.50;100.00;100302.47;5008800;27;100521;-62
2020/12/14 04:42:31;;;;;;;45.73;27.53;;;4.40;99.90;;;2.46;100.00;100293.94;5008082;27;100159;-62
2020/12/14 04:44:58;;;;;;;40.70;25.80;;;4.50;99.90;;;2.39;100.00;100287.38;5020464;27;100000;-62
2020/12/14 04:47:27;;;;;;;43.70;27.67;;;4.40;99.90;;;2.36;100.00;100282.31;5029451;27;100122;-62
2020/12/14 04:49:55;;;;;;;48.63;28.80;;;4.40;99.90;;;2.25;100.00;100286.66;5027953;27;101876;-62
2020/12/14 04:52:24;;;;;;;42.77;26.37;;;4.40;99.90;;;2.17;100.00;100280.09;5028904;27;100891;-62
2020/12/14 04:54:51;;;;;;;49.80;28.60;;;4.40;99.90;;;2.13;100.00;100281.25;5015125;27;100036;-62
2020/12/14 04:57:22;;;;;;;49.77;28.27;;;4.00;99.90;;;2.09;100.00;100282.44;5008484;27;100190;-63
2020/12/14 04:59:51;;;;;;;43.63;27.33;;;4.10;99.90;;;2.02;100.00;100288.22;5007972;27;100013;-62
2020/12/14 05:02:18;;;;;;;44.17;26.97;;;4.00;99.90;;;1.97;100.00;100287.69;5016442;27;100453;-62
2020/12/14 05:04:45;;;;;;;44.53;26.83;;;3.90;99.90;;;1.89;100.00;100282.06;5017914;27;100319;-61
2020/12/14 05:07:12;;;;;;;45.83;26.37;;;3.70;99.90;;;1.79;100.00;100285.34;5006431;27;100098;-62
2020/12/14 05:09:41;;;;;;;49.00;27.80;;;3.90;99.90;;;1.83;100.00;100293.06;5008287;27;101059;-62
2020/12/14 05:12:22;;;;;;;47.87;28.03;;;3.60;99.90;;;1.77;100.00;100286.38;5007929;27;100747;-62
2020/12/14 05:14:49;;;;;;;43.53;27.07;;;3.70;99.90;;;1.75;100.00;100294.38;5005723;27;100025;-62
2020/12/14 05:17:24;;;;;;;44.67;27.47;;;3.70;99.90;;;1.71;100.00;100295.56;5007950;27;100382;-62
2020/12/14 05:19:51;;;;;;;46.33;27.87;;;3.50;99.90;;;1.68;100.00;100294.91;5007470;27;101061;-63
2020/12/14 05:22:17;;;;;;;54.87;30.20;;;3.60;99.90;;;1.62;100.00;100295.31;5007185;27;101120;-62
2020/12/14 05:24:51;;;;;;;51.30;28.53;;;3.50;99.90;;;1.55;100.00;100299.31;5007889;27;100351;-63
2020/12/14 05:27:31;;;;;;;50.80;28.90;;;3.40;99.90;;;1.55;100.00;100299.31;5007876;27;99991;-62
2020/12/14 05:29:58;;;;;;;51.43;28.43;;;3.50;99.90;;;1.42;100.00;100294.84;5009381;27;101054;-62
2020/12/14 05:32:25;;;;;;;49.67;27.47;;;3.30;99.90;;;1.41;100.00;100300.19;5007717;27;100731;-63
2020/12/14 05:34:51;;;;;;;48.43;26.83;;;3.20;99.90;;;1.42;100.00;100304.53;5008251;27;100107;-62
2020/12/14 05:37:18;;;;;;;53.00;28.10;;;3.20;99.90;;;1.37;100.00;100299.53;5008133;27;100067;-62
2020/12/14 05:39:45;;;;;;;47.47;25.57;;;3.30;99.90;;;1.46;100.00;100299.91;5007092;27;103128;-63
2020/12/14 05:42:18;;;;;;;48.47;26.87;;;3.10;99.90;;;1.34;100.00;100298.91;5013272;27;100054;-61
2020/12/14 05:44:46;;;;;;;48.10;27.27;;;2.00;99.90;;;1.33;100.00;100300.72;5007324;27;99901;-61
2020/12/14 05:47:25;;;;;;;54.03;29.30;;;3.20;99.90;;;1.30;100.00;100287.72;5007855;27;100098;-61
2020/12/14 05:49:52;;;;;;;51.87;26.90;;;3.20;99.90;;;1.21;100.00;100290.97;5019042;27;100927;-61
2020/12/14 05:52:21;;;;;;;49.10;26.87;;;3.20;99.90;;;1.20;100.00;100285.78;5027441;27;101110;-62
2020/12/14 05:54:52;;;;;;;53.07;28.20;;;3.30;99.90;;;1.16;100.00;100289.56;5008719;27;100154;-61
2020/12/14 05:57:29;;;;;;;45.80;27.50;;;3.30;99.90;;;1.10;100.00;100293.44;5015507;27;100051;-61
2020/12/14 06:00:02;;;;;;;53.40;29.40;;;3.20;99.90;;;1.12;100.00;100286.25;5027340;27;101754;-61
2020/12/14 06:02:33;;;;;;;49.50;27.77;;;3.20;99.90;;;0.98;100.00;100281.91;5025296;27;100311;-60
2020/12/14 06:05:02;;;;;;;53.10;27.70;;;3.20;99.90;;;0.98;100.00;100286.31;5028001;27;100200;-62
2020/12/14 06:07:31;;;;;;;54.63;29.57;;;3.20;99.90;;;0.92;100.00;100284.06;5027823;27;100003;-61
2020/12/14 06:10:07;;;;;;;51.20;27.80;;;3.20;99.90;;;1.02;100.00;100282.53;5027430;27;100866;-61
2020/12/14 06:12:36;;;;;;;48.70;27.37;;;3.20;99.90;;;0.99;100.00;100283.56;5027684;27;100592;-61
2020/12/14 06:15:07;;;;;;;47.17;27.07;;;3.10;99.90;;;1.09;100.00;100291.75;5027915;27;100220;-61
2020/12/14 06:17:36;;;;;;;40.47;24.80;;;3.00;99.90;;;1.16;100.00;100297.47;5027540;27;100000;-61
2020/12/14 06:20:13;;;;;;;45.87;24.77;;;3.20;99.90;;;1.26;100.00;100295.91;5027509;27;100905;-61
2020/12/14 06:22:46;;;;;;;44.07;26.03;;;3.20;99.90;;;1.17;100.00;100289.44;5025203;27;101864;-61
2020/12/14 06:25:13;;;;;;;48.67;26.67;;;3.30;99.90;;;1.11;100.00;100286.38;5026281;27;100020;-61
2020/12/14 06:27:40;;;;;;;47.87;25.30;;;3.80;99.90;;;1.07;100.00;100288.34;5028648;27;100216;-61
2020/12/14 06:30:32;;;;;;;46.50;26.40;;;3.30;99.90;;;1.12;100.00;100293.31;5027452;27;100823;-61
2020/12/14 06:33:01;;;;;;;42.63;25.00;;;3.30;99.90;;;1.13;100.00;100303.75;5026684;27;100849;-61
2020/12/14 06:35:47;;;;;;;49.43;28.00;;;3.30;99.90;;;1.14;100.00;100300.19;5026532;27;100261;-60
2020/12/14 06:38:37;;;;;;;45.03;27.13;;;3.30;99.90;;;1.21;100.00;100300.66;5027253;27;102578;-61
2020/12/14 06:41:04;;;;;;;45.17;26.03;;;3.20;99.90;;;1.13;100.00;100300.28;5023888;27;101474;-62
2020/12/14 06:43:33;;;;;;;48.60;27.90;;;3.20;99.90;;;1.09;100.00;100302.28;5024416;27;100388;-61
2020/12/14 06:46:01;;;;;;;46.10;26.43;;;3.30;99.90;;;1.09;100.00;100304.91;5025002;27;100471;-61
2020/12/14 06:48:47;;;;;;;44.43;25.27;;;3.20;99.90;;;1.10;100.00;100298.72;5024692;27;100102;-61
2020/12/14 06:51:15;;;;;;;45.30;25.17;;;3.20;99.90;;;0.91;100.00;100299.00;5012844;27;100781;-61
2020/12/14 06:53:52;;;;;;;50.67;26.63;;;3.10;99.90;;;0.83;100.00;100297.81;5004298;27;100850;-61
2020/12/14 06:56:46;;;;;;;42.57;25.17;;;3.10;99.90;;;0.65;100.00;100299.78;5004116;27;99968;-60
2020/12/14 06:59:29;;;;;;;43.80;26.00;;;3.00;99.90;;;0.73;100.00;100297.56;5003882;27;100383;-62
2020/12/14 07:01:57;;;;;;;39.47;24.67;;;2.90;99.90;;;0.68;100.00;100300.47;5008413;27;103590;-60
2020/12/14 07:04:41;;;;;;;44.43;25.63;;;2.90;99.90;;;0.56;100.00;100293.31;5023939;27;100798;-61
2020/12/14 07:07:33;;;;;;;49.57;28.17;;;2.90;99.90;;;0.49;100.00;100291.16;5024891;27;100201;-63
2020/12/14 07:10:16;;;;;;;47.77;27.00;;;2.80;99.90;;;0.52;100.00;100298.84;5024557;27;100427;-61
2020/12/14 07:12:46;;;;;;;41.13;24.97;;;2.60;99.90;;;0.57;100.00;100294.16;5023717;27;101338;-60
2020/12/14 07:15:28;;;;;;;45.03;26.80;;;2.70;99.90;;;0.52;100.00;100298.84;5023802;27;101041;-60
2020/12/14 07:18:05;;;;;;;43.70;26.73;;;2.60;99.90;;;0.44;100.00;100303.75;5024063;27;99993;-63
2020/12/14 07:20:33;;;;;;;43.90;26.37;;;2.90;99.90;;;0.51;100.00;100302.44;5025437;27;100183;-61
2020/12/14 07:23:06;;;;;;;42.33;24.17;;;2.40;99.90;;;0.67;100.00;100300.53;5024535;27;100695;-60
2020/12/14 07:25:34;;;;;;;40.73;24.33;;;1.70;99.90;;;0.59;100.00;100305.44;5024118;27;100580;-65
2020/12/14 07:28:03;;;;;;;40.37;24.47;;;3.70;99.90;;;0.48;100.00;100305.28;5024141;27;99990;-62
2020/12/14 07:30:30;;;;;;;35.73;22.87;;;2.50;99.90;;;0.57;100.00;100308.19;5024302;27;100107;-61
2020/12/14 07:33:00;;;;;;;38.93;23.27;;;2.50;99.90;;;0.60;100.00;100310.63;5024483;27;101127;-63
2020/12/14 07:35:26;;;;;;;39.13;23.90;;;2.40;99.90;;;0.52;100.00;100301.50;5024839;27;100512;-64
2020/12/14 07:37:53;;;;;;;49.97;27.47;;;2.40;99.90;;;0.55;100.00;100304.78;5027794;27;100223;-63
2020/12/14 07:40:19;;;;;;;37.17;22.80;;;2.40;99.90;;;0.48;100.00;100313.16;5027781;27;100080;-63
2020/12/14 07:42:47;;;;;;;41.17;24.83;;;2.40;99.90;;;0.25;100.00;100309.28;5027296;27;100813;-63
2020/12/14 07:45:19;;;;;;;37.47;25.33;;;2.50;99.90;;;0.49;100.00;100312.22;5026029;27;101092;-62
2020/12/14 07:47:47;;;;;;;47.70;28.63;;;2.60;99.90;;;0.37;100.00;100305.09;5026972;27;99945;-62
2020/12/14 07:50:16;;;;;;;38.40;24.83;;;2.70;99.90;;;0.28;100.00;100302.03;5027628;27;100077;-63
2020/12/14 07:52:43;;;;;;;40.83;25.10;;;2.60;99.90;;;0.30;100.00;100300.16;5026783;27;101425;-62
2020/12/14 07:55:11;;;;;;;43.67;27.37;;;2.70;99.90;;;0.29;100.00;100302.91;5027768;27;100841;-62
2020/12/14 07:57:40;;;;;;;35.97;24.50;;;2.70;99.90;;;0.30;100.00;100294.91;5027386;27;100442;-62
2020/12/14 08:00:08;;;;;;;40.20;24.93;;;2.60;99.90;;;0.37;100.00;100302.44;5026834;27;100346;-62
2020/12/14 08:02:40;;;;;;;39.43;23.97;;;2.80;99.90;;;0.52;100.00;100298.84;5023589;27;100752;-63
2020/12/14 08:05:09;;;;;;;38.13;24.83;;;3.00;99.90;;;0.79;100.00;100297.16;5027302;27;100549;-62
2020/12/14 08:07:43;;;;;;;45.60;27.17;;;3.00;99.90;;;0.92;100.00;100308.63;5027596;27;100143;-63
2020/12/14 08:10:10;;;;;;;41.63;27.17;;;3.20;99.90;;;0.99;100.00;100301.19;5010784;27;100350;-62
2020/12/14 08:12:38;;;;;;;45.20;29.57;;;3.30;99.90;;;1.05;100.00;100298.16;5010627;27;101265;-63
2020/12/14 08:15:12;;;;;;;39.67;25.77;;;3.50;99.90;;;1.13;100.00;100298.50;5026896;27;100333;-63
2020/12/14 08:17:40;;;;;;;37.53;26.30;;;3.50;99.90;;;1.05;100.00;100301.63;5026437;27;100005;-62
2020/12/14 08:20:23;;;;;;;37.47;25.70;;;3.60;99.90;;;1.07;100.00;100289.22;5027514;27;100105;-62
2020/12/14 08:22:50;;;;;;;38.40;24.30;;;3.70;99.90;;;0.91;100.00;100292.91;5026490;27;100632;-62
2020/12/14 08:25:21;;;;;;;38.40;23.23;;;4.00;99.90;;;0.93;100.00;100288.38;5027238;27;100749;-62
2020/12/14 08:27:51;;;;;;;33.50;22.40;;;3.90;99.90;;;0.92;100.00;100284.91;5023822;27;100035;-62
2020/12/14 08:30:20;;;;;;;29.50;20.47;;;3.90;99.90;;;1.19;100.00;100295.47;5006744;27;100144;-62
2020/12/14 08:33:07;;;;;;;31.67;21.03;;;4.00;99.90;;;1.34;100.00;100298.91;5006414;27;101593;-62
2020/12/14 08:35:34;;;;;;;33.67;22.10;;;4.00;99.90;;;1.46;100.00;100298.13;5006770;27;100585;-62
2020/12/14 08:38:03;;;;;;;34.77;23.00;;;4.20;99.90;;;1.70;100.00;100293.88;5006147;27;100182;-62
2020/12/14 08:40:30;;;;;;;37.17;24.30;;;4.00;99.90;;;1.73;100.00;100292.84;5010687;27;100233;-62
2020/12/14 08:43:11;;;;;;;36.50;23.90;;;4.20;99.90;;;1.73;100.00;100301.56;5025471;27;101420;-63
2020/12/14 08:45:39;;;;;;;35.00;22.47;;;4.30;99.90;;;1.83;100.00;100308.88;5025848;27;100502;-64
2020/12/14 08:48:06;;;;;;;33.07;22.73;;;4.40;99.90;;;1.53;100.00;100303.81;5025565;27;100160;-62
2020/12/14 08:50:33;;;;;;;29.60;19.30;;;4.60;99.90;;;1.45;100.00;100312.25;5027211;27;100145;-62
2020/12/14 08:53:00;;;;;;;27.57;19.20;;;4.60;99.90;;;1.67;100.00;100311.69;5025700;27;101486;-62
2020/12/14 08:55:36;;;;;;;27.17;19.57;;;4.70;99.90;;;1.83;100.00;100311.53;5026693;27;100603;-61
2020/12/14 08:58:02;;;;;;;31.43;22.37;;;5.80;99.90;;;1.95;100.00;100313.34;5026555;27;100068;-63
2020/12/14 09:00:29;;;;;;;33.93;22.37;;;4.80;99.90;;;2.14;100.00;100305.84;5014762;27;100428;-61
2020/12/14 09:03:00;;;;;;;30.83;20.37;;;4.70;99.90;;;2.28;100.00;100305.78;5005821;27;101416;-61
2020/12/14 09:05:32;;;;;;;32.17;21.20;;;5.00;99.90;;;2.41;100.00;100308.41;5005865;27;101302;-61
2020/12/14 09:08:12;;;;;;;30.73;20.27;;;5.10;99.90;;;2.59;100.00;100306.31;5006074;27;100016;-62
2020/12/14 09:10:38;;;;;;;90.70;58.67;;;5.30;99.90;;;2.65;100.00;100311.13;5026402;27;100209;-62
2020/12/14 09:13:05;;;;;;;132.00;81.90;;;5.30;99.90;;;2.68;100.00;100309.16;5025815;27;100153;-62
2020/12/14 09:15:32;;;;;;;132.83;82.87;;;5.50;99.90;;;2.70;100.00;100301.13;5040438;27;102271;-63
2020/12/14 09:18:04;;;;;;;106.70;67.10;;;5.70;99.90;;;2.88;100.00;100308.56;5026583;27;100139;-62
2020/12/14 09:20:32;;;;;;;83.10;55.13;;;5.70;99.90;;;2.92;100.00;100308.34;5025984;27;100014;-62
2020/12/14 09:22:58;;;;;;;40.87;29.87;;;5.90;99.90;;;2.73;100.00;100307.00;5026119;27;100785;-62
2020/12/14 09:25:25;;;;;;;32.00;21.97;;;6.00;99.90;;;2.65;100.00;100300.56;5025724;27;101205;-61
2020/12/14 09:27:51;;;;;;;32.83;21.70;;;6.00;99.90;;;2.72;100.00;100296.56;5027144;27;100166;-64
2020/12/14 09:30:17;;;;;;;31.03;22.77;;;6.10;99.90;;;2.86;100.00;100286.69;5025185;27;100053;-62
2020/12/14 09:32:44;;;;;;;58.13;40.53;;;6.20;99.90;;;3.19;100.00;100285.25;5025040;27;101259;-62
2020/12/14 09:35:10;;;;;;;51.37;35.80;;;6.30;99.90;;;3.37;100.00;100288.31;5025419;27;100599;-62
2020/12/14 09:37:37;;;;;;;47.37;34.77;;;6.50;99.90;;;3.66;100.00;100289.69;5025534;27;100117;-62
2020/12/14 09:40:04;;;;;;;56.73;42.17;;;6.70;99.90;;;3.90;100.00;100284.34;5024690;27;100221;-62
2020/12/14 09:42:31;;;;;;;56.67;41.07;;;6.90;99.90;;;4.00;100.00;100273.91;5025645;27;101050;-63
2020/12/14 09:44:59;;;;;;;54.03;40.07;;;7.00;99.90;;;4.14;100.00;100276.34;5025571;27;100236;-62
2020/12/14 09:47:26;;;;;;;35.10;24.03;;;7.80;99.90;;;4.44;100.00;100274.00;5026159;27;100359;-62
2020/12/14 09:49:52;;;;;;;38.33;26.50;;;8.00;99.90;;;4.66;100.00;100278.44;5025932;27;100094;-62
2020/12/14 09:52:18;;;;;;;28.03;20.20;;;8.80;99.90;;;4.89;100.00;100285.41;5008973;27;100829;-62
2020/12/14 09:54:46;;;;;;;24.10;18.23;;;7.60;99.90;;;4.97;100.00;100290.94;5005050;27;100732;-62
2020/12/14 09:57:12;;;;;;;56.37;37.40;;;8.40;99.90;;;5.18;100.00;100285.75;5004177;27;100131;-62
2020/12/14 09:59:39;;;;;;;27.03;19.57;;;9.20;99.90;;;5.30;100.00;100279.44;5004204;27;100189;-62
2020/12/14 10:02:05;;;;;;;18.00;14.53;;;8.10;99.90;;;5.46;100.00;100278.16;5006893;27;100868;-62
2020/12/14 10:04:31;;;;;;;17.43;13.63;;;8.00;99.90;;;5.54;100.00;100273.94;5004208;27;101351;-62
2020/12/14 10:06:58;;;;;;;21.60;15.63;;;8.00;99.90;;;5.66;100.00;100272.94;5005551;27;100561;-63